createdAt,value
2023-05-01T00:00:50.166Z,9.46
2023-05-01T00:03:29.180Z,9.29
2023-05-01T00:06:08.285Z,9.21
2023-05-01T00:08:36.032Z,9.04
2023-05-01T00:11:12.876Z,8.97
2023-05-01T00:13:50.587Z,8.88
2023-05-01T00:16:23.261Z,8.95
2023-05-01T00:18:57.425Z,8.90
2023-05-01T00:21:30.462Z,9.00
2023-05-01T00:24:00.050Z,8.69
2023-05-01T00:26:34.594Z,8.92
2023-05-01T00:29:16.205Z,8.90
2023-05-01T00:31:53.986Z,8.88
2023-05-01T00:34:29.075Z,8.92
2023-05-01T00:37:02.978Z,9.13
2023-05-01T00:39:44.689Z,9.12
2023-05-01T00:42:15.039Z,9.07
2023-05-01T00:44:46.604Z,9.02
2023-05-01T00:47:17.249Z,9.10
2023-05-01T00:50:00.274Z,8.96
2023-05-01T00:52:45.986Z,8.82
2023-05-01T00:55:17.703Z,8.53
2023-05-01T00:57:46.923Z,8.87
2023-05-01T01:00:19.339Z,8.91
2023-05-01T01:03:01.825Z,8.90
2023-05-01T01:05:44.917Z,8.77
2023-05-01T01:08:44.111Z,8.37
2023-05-01T01:11:28.034Z,8.43
2023-05-01T01:14:21.236Z,8.46
2023-05-01T01:17:02.904Z,8.31
2023-05-01T01:20:51.896Z,8.38
2023-05-01T01:23:50.886Z,8.13
2023-05-01T01:26:34.728Z,8.05
2023-05-01T01:29:45.206Z,8.13
2023-05-01T01:33:04.815Z,8.16
2023-05-01T01:35:46.540Z,8.51
2023-05-01T01:38:41.813Z,8.13
2023-05-01T01:41:29.996Z,8.12
2023-05-01T01:44:33.461Z,8.03
2023-05-01T01:47:11.914Z,7.78
2023-05-01T01:49:49.589Z,8.08
2023-05-01T01:52:22.324Z,8.30
2023-05-01T01:55:01.577Z,8.07
2023-05-01T02:00:21.608Z,7.86
2023-05-01T02:02:55.815Z,7.68
2023-05-01T02:05:28.084Z,7.55
2023-05-01T02:07:59.769Z,7.42
2023-05-01T02:10:30.933Z,7.43
2023-05-01T02:13:02.742Z,7.46
2023-05-01T02:15:36.238Z,7.58
2023-05-01T02:18:27.690Z,7.55
2023-05-01T02:21:05.486Z,7.87
2023-05-01T02:23:39.852Z,8.09
2023-05-01T02:26:12.830Z,8.12
2023-05-01T02:28:49.228Z,7.97
2023-05-01T02:31:19.052Z,7.84
2023-05-01T02:33:54.730Z,7.88
2023-05-01T02:36:24.178Z,7.79
2023-05-01T02:39:00.307Z,7.64
2023-05-01T02:41:47.177Z,7.02
2023-05-01T02:44:23.338Z,7.15
2023-05-01T02:47:14.101Z,7.02
2023-05-01T02:49:56.580Z,7.14
2023-05-01T02:52:41.509Z,7.42
2023-05-01T02:55:28.184Z,7.45
2023-05-01T02:58:03.655Z,7.71
2023-05-01T03:00:38.825Z,7.43
2023-05-01T03:03:16.243Z,7.42
2023-05-01T03:05:51.210Z,7.47
2023-05-01T03:08:23.244Z,7.20
2023-05-01T03:10:54.396Z,7.16
2023-05-01T03:13:31.048Z,7.05
2023-05-01T03:16:04.485Z,7.19
2023-05-01T03:18:32.772Z,7.02
2023-05-01T03:21:00.953Z,6.77
2023-05-01T03:23:29.094Z,6.76
2023-05-01T03:26:04.794Z,7.11
2023-05-01T03:28:35.346Z,7.08
2023-05-01T03:31:10.368Z,6.95
2023-05-01T03:33:41.093Z,7.17
2023-05-01T03:36:24.749Z,7.30
2023-05-01T03:39:07.399Z,7.07
2023-05-01T03:42:03.257Z,6.85
2023-05-01T03:44:46.460Z,6.87
2023-05-01T03:47:20.469Z,6.65
2023-05-01T03:49:50.950Z,6.57
2023-05-01T03:52:21.292Z,6.78
2023-05-01T03:54:51.436Z,6.80
2023-05-01T03:57:30.475Z,6.66
2023-05-01T04:02:51.829Z,6.51
2023-05-01T04:05:25.126Z,6.82
2023-05-01T04:08:08.012Z,6.94
2023-05-01T04:10:38.639Z,6.84
2023-05-01T04:13:15.467Z,6.62
2023-05-01T04:15:47.555Z,6.51
2023-05-01T04:18:18.748Z,6.81
2023-05-01T04:20:49.102Z,6.90
2023-05-01T04:23:22.134Z,6.90
2023-05-01T04:25:54.654Z,7.03
2023-05-01T04:28:31.405Z,7.16
2023-05-01T04:31:07.053Z,7.38
2023-05-01T04:33:37.660Z,7.52
2023-05-01T04:36:12.441Z,7.29
2023-05-01T04:38:43.749Z,7.50
2023-05-01T04:41:16.715Z,7.71
2023-05-01T04:43:49.490Z,7.45
2023-05-01T04:46:22.225Z,7.67
2023-05-01T04:48:54.399Z,7.77
2023-05-01T04:51:25.896Z,7.91
2023-05-01T04:53:56.668Z,7.88
2023-05-01T04:56:28.214Z,8.19
2023-05-01T04:59:01.477Z,8.23
2023-05-01T05:01:40.595Z,8.30
2023-05-01T05:04:12.012Z,8.40
2023-05-01T05:06:43.246Z,8.60
2023-05-01T05:09:20.154Z,8.68
2023-05-01T05:11:52.071Z,8.63
2023-05-01T05:14:23.141Z,8.69
2023-05-01T05:17:10.756Z,8.87
2023-05-01T05:19:44.504Z,9.04
2023-05-01T05:22:20.592Z,9.15
2023-05-01T05:25:21.163Z,9.15
2023-05-01T05:27:51.286Z,9.21
2023-05-01T05:30:23.026Z,9.38
2023-05-01T05:32:55.232Z,9.55
2023-05-01T05:35:31.682Z,9.50
2023-05-01T05:38:13.624Z,9.63
2023-05-01T05:40:47.321Z,9.71
2023-05-01T05:43:19.134Z,9.66
2023-05-01T05:48:36.976Z,9.64
2023-05-01T05:51:32.944Z,9.67
2023-05-01T05:54:04.044Z,9.87
2023-05-01T05:56:37.194Z,9.78
2023-05-01T05:59:11.632Z,9.88
2023-05-01T06:01:42.813Z,9.88
2023-05-01T06:04:18.696Z,9.89
2023-05-01T06:06:56.269Z,9.97
2023-05-01T06:09:28.657Z,10.27
2023-05-01T06:12:06.395Z,10.58
2023-05-01T06:14:38.653Z,10.57
2023-05-01T06:17:21.718Z,10.28
2023-05-01T06:19:56.118Z,10.66
2023-05-01T06:22:25.267Z,10.76
2023-05-01T06:25:04.665Z,10.67
2023-05-01T06:27:34.641Z,10.73
2023-05-01T06:30:02.855Z,10.82
2023-05-01T06:32:34.389Z,11.04
2023-05-01T06:35:13.324Z,11.03
2023-05-01T06:37:41.361Z,10.86
2023-05-01T06:40:14.543Z,10.93
2023-05-01T06:42:46.545Z,11.16
2023-05-01T06:45:16.699Z,11.40
2023-05-01T06:47:56.764Z,11.24
2023-05-01T06:50:31.380Z,11.70
2023-05-01T06:53:03.566Z,11.73
2023-05-01T06:55:35.832Z,11.66
2023-05-01T06:58:12.697Z,11.87
2023-05-01T07:00:53.942Z,11.87
2023-05-01T07:03:30.130Z,11.99
2023-05-01T07:05:59.463Z,12.01
2023-05-01T07:08:28.849Z,12.34
2023-05-01T07:11:00.935Z,12.58
2023-05-01T07:13:37.740Z,12.63
2023-05-01T07:16:08.832Z,12.70
2023-05-01T07:18:38.079Z,12.80
2023-05-01T07:21:18.264Z,12.98
2023-05-01T07:23:52.318Z,13.01
2023-05-01T07:26:28.758Z,13.28
2023-05-01T07:29:03.771Z,13.35
2023-05-01T07:31:35.006Z,13.12
2023-05-01T07:34:14.967Z,13.24
2023-05-01T07:36:57.324Z,13.57
2023-05-01T07:39:41.056Z,13.56
2023-05-01T07:42:18.639Z,13.40
2023-05-01T07:44:53.904Z,13.20
2023-05-01T07:47:24.416Z,13.17
2023-05-01T07:49:55.846Z,13.40
2023-05-01T07:52:27.977Z,13.55
2023-05-01T07:55:00.737Z,13.70
2023-05-01T07:57:34.735Z,13.84
2023-05-01T08:00:03.097Z,13.64
2023-05-01T08:02:42.228Z,13.66
2023-05-01T08:05:16.698Z,13.74
2023-05-01T08:07:48.565Z,13.85
2023-05-01T08:13:03.272Z,14.13
2023-05-01T08:15:33.812Z,14.18
2023-05-01T08:18:04.413Z,13.88
2023-05-01T08:20:32.816Z,13.99
2023-05-01T08:23:08.957Z,14.04
2023-05-01T08:25:52.157Z,14.17
2023-05-01T08:28:33.792Z,14.15
2023-05-01T08:31:05.588Z,14.47
2023-05-01T08:33:45.914Z,14.36
2023-05-01T08:36:21.241Z,14.15
2023-05-01T08:38:58.645Z,14.06
2023-05-01T08:41:30.525Z,14.14
2023-05-01T08:47:15.095Z,14.30
2023-05-01T08:49:45.614Z,14.69
2023-05-01T08:52:19.285Z,15.03
2023-05-01T08:54:50.125Z,15.13
2023-05-01T08:57:27.060Z,15.34
2023-05-01T09:03:04.149Z,15.71
2023-05-01T09:05:41.634Z,16.25
2023-05-01T09:08:12.168Z,16.41
2023-05-01T09:10:53.250Z,16.65
2023-05-01T09:13:23.299Z,16.71
2023-05-01T09:16:02.514Z,16.66
2023-05-01T09:18:31.803Z,16.83
2023-05-01T09:21:02.413Z,17.16
2023-05-01T09:23:40.904Z,16.96
2023-05-01T09:26:09.993Z,16.59
2023-05-01T09:28:52.090Z,16.17
2023-05-01T09:31:28.730Z,16.48
2023-05-01T09:34:05.110Z,16.88
2023-05-01T09:36:40.378Z,17.03
2023-05-01T09:39:17.971Z,17.17
2023-05-01T09:41:56.621Z,16.73
2023-05-01T09:44:39.321Z,17.28
2023-05-01T09:47:11.291Z,17.46
2023-05-01T09:50:03.810Z,17.27
2023-05-01T09:52:34.290Z,16.89
2023-05-01T09:55:23.556Z,17.18
2023-05-01T09:57:58.949Z,17.39
2023-05-01T10:00:30.292Z,17.77
2023-05-01T10:03:02.434Z,17.57
2023-05-01T10:05:46.222Z,17.67
2023-05-01T10:08:16.678Z,17.81
2023-05-01T10:10:47.227Z,17.39
2023-05-01T10:13:26.818Z,17.59
2023-05-01T10:15:58.077Z,17.55
2023-05-01T10:18:33.428Z,17.85
2023-05-01T10:21:14.053Z,17.41
2023-05-01T10:23:50.501Z,17.94
2023-05-01T10:26:21.657Z,17.81
2023-05-01T10:29:05.638Z,17.80
2023-05-01T10:31:36.192Z,18.38
2023-05-01T10:34:21.063Z,18.45
2023-05-01T10:37:07.222Z,18.63
2023-05-01T10:39:47.235Z,18.76
2023-05-01T10:42:20.967Z,17.87
2023-05-01T10:44:51.828Z,18.25
2023-05-01T10:47:32.165Z,18.78
2023-05-01T10:50:26.193Z,18.81
2023-05-01T10:53:14.184Z,18.41
2023-05-01T10:55:50.260Z,18.25
2023-05-01T10:58:41.238Z,18.08
2023-05-01T11:01:34.371Z,18.68
2023-05-01T11:04:27.153Z,18.38
2023-05-01T11:07:13.635Z,18.29
2023-05-01T11:10:02.520Z,18.24
2023-05-01T11:12:56.967Z,18.41
2023-05-01T11:15:39.540Z,18.10
2023-05-01T11:18:07.822Z,18.02
2023-05-01T11:20:51.227Z,18.20
2023-05-01T11:23:25.750Z,18.11
2023-05-01T11:26:13.297Z,18.35
2023-05-01T11:28:52.114Z,18.50
2023-05-01T11:31:23.513Z,18.15
2023-05-01T11:34:03.942Z,18.43
2023-05-01T11:36:57.017Z,18.31
2023-05-01T11:39:27.044Z,18.51
2023-05-01T11:42:15.448Z,18.41
2023-05-01T11:44:52.145Z,18.29
2023-05-01T11:47:41.521Z,18.59
2023-05-01T11:50:13.113Z,18.93
2023-05-01T11:52:55.987Z,19.10
2023-05-01T11:55:34.709Z,19.33
2023-05-01T11:58:04.999Z,19.41
2023-05-01T12:00:49.161Z,19.49
2023-05-01T12:03:25.888Z,19.76
2023-05-01T12:05:57.789Z,19.33
2023-05-01T12:08:33.731Z,18.60
2023-05-01T12:11:03.983Z,18.83
2023-05-01T12:13:32.493Z,18.90
2023-05-01T12:16:01.879Z,18.86
2023-05-01T12:18:33.380Z,18.53
2023-05-01T12:21:11.499Z,18.65
2023-05-01T12:23:44.609Z,18.61
2023-05-01T12:26:26.811Z,18.13
2023-05-01T12:29:04.716Z,17.91
2023-05-01T12:31:39.541Z,18.38
2023-05-01T12:34:20.498Z,18.34
2023-05-01T12:36:59.982Z,18.27
2023-05-01T12:39:43.407Z,18.28
2023-05-01T12:42:22.682Z,18.18
2023-05-01T12:45:02.806Z,18.10
2023-05-01T12:47:56.704Z,18.38
2023-05-01T12:50:29.231Z,18.27
2023-05-01T12:52:59.503Z,18.32
2023-05-01T12:55:30.715Z,18.33
2023-05-01T12:58:04.045Z,18.29
2023-05-01T13:00:51.893Z,18.33
2023-05-01T13:03:33.905Z,18.57
2023-05-01T13:06:05.890Z,18.45
2023-05-01T13:08:41.539Z,18.36
2023-05-01T13:11:19.453Z,18.11
2023-05-01T13:13:50.689Z,18.20
2023-05-01T13:16:21.311Z,18.05
2023-05-01T13:19:01.594Z,17.96
2023-05-01T13:21:29.367Z,18.12
2023-05-01T13:24:12.503Z,18.11
2023-05-01T13:26:45.393Z,17.84
2023-05-01T13:29:17.375Z,17.99
2023-05-01T13:31:49.546Z,18.07
2023-05-01T13:34:31.286Z,17.96
2023-05-01T13:37:04.271Z,17.83
2023-05-01T13:39:48.268Z,17.76
2023-05-01T13:42:27.486Z,17.78
2023-05-01T13:45:08.953Z,17.63
2023-05-01T13:47:50.747Z,17.48
2023-05-01T13:50:24.320Z,17.44
2023-05-01T13:52:55.093Z,17.38
2023-05-01T13:55:33.091Z,17.19
2023-05-01T13:58:12.366Z,17.15
2023-05-01T14:00:44.081Z,17.21
2023-05-01T14:06:12.123Z,17.17
2023-05-01T14:08:46.589Z,17.14
2023-05-01T14:11:18.128Z,17.21
2023-05-01T14:13:49.875Z,16.99
2023-05-01T14:16:33.396Z,16.96
2023-05-01T14:19:03.484Z,17.03
2023-05-01T14:21:51.942Z,17.04
2023-05-01T14:24:23.223Z,17.19
2023-05-01T14:26:54.325Z,17.16
2023-05-01T14:29:30.661Z,17.15
2023-05-01T14:32:04.379Z,17.15
2023-05-01T14:34:34.874Z,17.22
2023-05-01T14:37:04.744Z,17.15
2023-05-01T14:39:39.761Z,17.26
2023-05-01T14:42:10.937Z,16.87
2023-05-01T14:44:50.821Z,17.24
2023-05-01T14:47:30.468Z,17.19
2023-05-01T14:50:13.445Z,17.18
2023-05-01T14:52:43.886Z,17.11
2023-05-01T14:55:17.801Z,17.25
2023-05-01T14:57:55.489Z,17.34
2023-05-01T15:00:28.973Z,17.29
2023-05-01T15:03:13.371Z,17.29
2023-05-01T15:05:44.634Z,17.27
2023-05-01T15:08:15.853Z,17.25
2023-05-01T15:10:47.969Z,17.18
2023-05-01T15:13:24.150Z,17.25
2023-05-01T15:15:57.874Z,17.25
2023-05-01T15:18:30.639Z,17.22
2023-05-01T15:21:01.568Z,17.20
2023-05-01T15:23:39.397Z,17.07
2023-05-01T15:26:09.492Z,16.65
2023-05-01T15:28:42.864Z,16.81
2023-05-01T15:31:16.413Z,16.89
2023-05-01T15:33:47.883Z,16.80
2023-05-01T15:36:17.888Z,16.68
2023-05-01T15:38:53.066Z,16.56
2023-05-01T15:41:21.426Z,16.51
2023-05-01T15:44:00.564Z,16.43
2023-05-01T15:46:39.112Z,16.45
2023-05-01T15:49:13.220Z,16.51
2023-05-01T15:51:45.191Z,16.54
2023-05-01T15:54:23.660Z,16.50
2023-05-01T15:56:54.624Z,16.45
2023-05-01T15:59:28.410Z,16.47
2023-05-01T16:02:00.068Z,16.40
2023-05-01T16:04:32.384Z,16.35
2023-05-01T16:07:21.444Z,16.34
2023-05-01T16:09:52.505Z,16.30
2023-05-01T16:12:31.485Z,16.29
2023-05-01T16:15:02.174Z,16.24
2023-05-01T16:17:36.388Z,16.23
2023-05-01T16:20:05.239Z,16.19
2023-05-01T16:22:36.855Z,16.22
2023-05-01T16:25:13.238Z,16.14
2023-05-01T16:27:51.815Z,16.11
2023-05-01T16:30:31.738Z,16.12
2023-05-01T16:33:05.237Z,16.11
2023-05-01T16:35:39.400Z,16.10
2023-05-01T16:38:07.429Z,16.08
2023-05-01T16:40:42.664Z,15.92
2023-05-01T16:43:21.254Z,15.86
2023-05-01T16:45:55.171Z,15.75
2023-05-01T16:48:30.183Z,15.77
2023-05-01T16:51:03.262Z,15.59
2023-05-01T16:53:42.385Z,15.37
2023-05-01T16:56:22.565Z,15.33
2023-05-01T16:59:00.253Z,15.21
2023-05-01T17:01:28.635Z,15.29
2023-05-01T17:04:01.387Z,15.36
2023-05-01T17:06:30.365Z,15.34
2023-05-01T17:09:04.569Z,15.27
2023-05-01T17:11:32.356Z,15.24
2023-05-01T17:14:03.580Z,15.18
2023-05-01T17:16:33.431Z,15.07
2023-05-01T17:19:16.612Z,15.10
2023-05-01T17:21:55.680Z,15.09
2023-05-01T17:24:34.293Z,15.09
2023-05-01T17:30:04.947Z,15.23
2023-05-01T17:32:37.279Z,15.13
2023-05-01T17:35:10.472Z,15.20
2023-05-01T17:40:42.046Z,15.04
2023-05-01T17:43:16.806Z,14.89
2023-05-01T17:45:54.622Z,14.83
2023-05-01T17:48:24.927Z,14.94
2023-05-01T17:51:00.044Z,15.08
2023-05-01T17:59:24.352Z,14.72
2023-05-01T18:01:55.362Z,14.54
2023-05-01T18:04:33.257Z,14.37
2023-05-01T18:07:04.912Z,14.31
2023-05-01T18:09:36.326Z,14.18
2023-05-01T18:12:04.937Z,14.02
2023-05-01T18:14:48.992Z,14.04
2023-05-01T18:17:19.941Z,13.93
2023-05-01T18:19:50.729Z,13.79
2023-05-01T18:25:01.415Z,13.73
2023-05-01T18:27:33.979Z,13.65
2023-05-01T18:30:20.178Z,13.58
2023-05-01T18:32:57.947Z,13.67
2023-05-01T18:35:27.778Z,13.72
2023-05-01T18:37:58.196Z,13.70
2023-05-01T18:40:36.034Z,13.66
2023-05-01T18:43:06.388Z,13.76
2023-05-01T18:45:34.411Z,13.85
2023-05-01T18:48:13.032Z,13.87
2023-05-01T18:51:07.101Z,13.81
2023-05-01T18:53:38.461Z,13.90
2023-05-01T18:56:13.494Z,13.73
2023-05-01T18:58:43.613Z,13.75
2023-05-01T19:01:21.395Z,13.80
2023-05-01T19:03:54.601Z,13.90
2023-05-01T19:09:23.840Z,13.87
2023-05-01T19:12:09.223Z,13.66
2023-05-01T19:14:39.862Z,13.76
2023-05-01T19:17:09.583Z,13.59
2023-05-01T19:19:40.321Z,13.64
2023-05-01T19:22:16.243Z,13.43
2023-05-01T19:24:56.576Z,13.42
2023-05-01T19:27:36.627Z,13.49
2023-05-01T19:30:04.973Z,13.42
2023-05-01T19:32:37.014Z,13.51
2023-05-01T19:35:17.598Z,13.35
2023-05-01T19:37:51.262Z,13.35
2023-05-01T19:40:33.021Z,13.39
2023-05-01T19:43:08.339Z,13.31
2023-05-01T19:45:40.198Z,13.42
2023-05-01T19:48:16.502Z,13.49
2023-05-01T19:51:01.935Z,13.29
2023-05-01T19:53:35.104Z,13.40
2023-05-01T19:56:07.436Z,13.36
2023-05-01T19:58:37.480Z,13.51
2023-05-01T20:01:09.415Z,13.46
2023-05-01T20:12:15.742Z,13.41
2023-05-01T20:14:47.305Z,13.40
2023-05-01T20:17:23.703Z,13.32
2023-05-01T20:19:58.025Z,13.23
2023-05-01T20:22:44.126Z,13.15
2023-05-01T20:25:18.588Z,13.13
2023-05-01T20:27:48.560Z,13.20
2023-05-01T20:30:18.819Z,13.26
2023-05-01T20:32:56.323Z,13.20
2023-05-01T20:35:30.703Z,13.11
2023-05-01T20:38:08.568Z,13.14
2023-05-01T20:40:43.066Z,13.03
2023-05-01T20:43:17.653Z,12.83
2023-05-01T20:45:54.339Z,12.90
2023-05-01T20:48:26.957Z,12.88
2023-05-01T20:51:06.122Z,12.78
2023-05-01T20:53:45.590Z,12.88
2023-05-01T20:56:17.488Z,12.79
2023-05-01T20:58:48.052Z,12.82
2023-05-01T21:01:18.902Z,12.85
2023-05-01T21:03:52.863Z,12.76
2023-05-01T21:09:11.550Z,12.72
2023-05-01T21:11:42.638Z,12.68
2023-05-01T21:14:21.685Z,12.64
2023-05-01T21:16:54.791Z,12.75
2023-05-01T21:19:37.876Z,12.71
2023-05-01T21:22:09.696Z,12.47
2023-05-01T21:27:32.063Z,12.41
2023-05-01T21:30:15.527Z,12.37
2023-05-01T21:32:51.245Z,12.43
2023-05-01T21:35:22.891Z,12.44
2023-05-01T21:37:51.554Z,12.42
2023-05-01T21:40:23.906Z,12.36
2023-05-01T21:43:00.414Z,12.24
2023-05-01T21:45:37.501Z,12.41
2023-05-01T21:48:25.614Z,12.33
2023-05-01T21:50:59.250Z,12.35
2023-05-01T21:53:31.562Z,12.43
2023-05-01T21:56:03.200Z,12.42
2023-05-01T21:58:41.059Z,12.42
2023-05-01T22:01:09.699Z,12.44
2023-05-01T22:03:42.203Z,12.32
2023-05-01T22:06:31.478Z,12.25
2023-05-01T22:09:02.158Z,12.28
2023-05-01T22:11:40.217Z,12.29
2023-05-01T22:14:18.792Z,12.24
2023-05-01T22:16:49.227Z,12.30
2023-05-01T22:19:22.895Z,12.34
2023-05-01T22:21:56.312Z,12.34
2023-05-01T22:24:29.336Z,12.28
2023-05-01T22:27:01.946Z,12.31
2023-05-01T22:29:47.205Z,12.31
2023-05-01T22:32:28.352Z,12.24
2023-05-01T22:35:00.899Z,12.18
2023-05-01T22:37:37.420Z,12.26
2023-05-01T22:40:05.827Z,12.06
2023-05-01T22:42:44.802Z,12.09
2023-05-01T22:45:16.283Z,12.20
2023-05-01T22:48:01.811Z,12.09
2023-05-01T22:50:38.114Z,12.19
2023-05-01T22:53:14.597Z,12.15
2023-05-01T22:55:44.882Z,12.22
2023-05-01T22:58:19.528Z,11.99
2023-05-01T23:00:56.656Z,12.04
2023-05-01T23:03:28.755Z,11.97
2023-05-01T23:05:59.867Z,12.02
2023-05-01T23:08:30.483Z,12.16
2023-05-01T23:11:03.517Z,12.02
2023-05-01T23:13:35.579Z,12.09
2023-05-01T23:18:48.451Z,12.17
2023-05-01T23:21:26.822Z,12.25
2023-05-01T23:23:58.127Z,12.23
2023-05-01T23:26:36.886Z,12.23
2023-05-01T23:29:07.417Z,12.20
2023-05-01T23:31:36.476Z,12.19
2023-05-01T23:34:04.876Z,12.15
2023-05-01T23:39:17.202Z,11.95
2023-05-01T23:41:47.807Z,12.04
2023-05-01T23:44:18.712Z,12.03
2023-05-01T23:46:52.108Z,12.06
2023-05-01T23:49:25.666Z,12.06
2023-05-01T23:52:00.949Z,11.94
2023-05-01T23:54:31.657Z,11.98
2023-05-01T23:57:06.451Z,11.94
2023-05-01T23:59:36.697Z,11.90
